Weather History for Brady, TX

Change the Weather History Date:

Monday, January 13, 2014

  Actual Average (KJCT) Record (KJCT)
Temperature  
Mean Temperature 50 °F -  
Max Temperature 62 °F 59 °F 72 °F (2004)
Min Temperature 37 °F 32 °F 18 °F (1997)
Degree Days  
Heating Degree Days 16    
Moisture  
Dew Point 26 °F    
Average Humidity 40    
Maximum Humidity 82    
Minimum Humidity 16    
Precipitation  
Precipitation 0.00 in - - ()
Sea Level Pressure  
Sea Level Pressure 30.06 in    
Wind  
Wind Speed 11 mph (WNW)    
Max Wind Speed 20 mph    
Max Gust Speed -    
Visibility 10 miles    
Events      
Averages and records for this station are not official NWS values.
T = Trace of Precipitation, MM = Missing Value Source: NWS Daily Summary

Daily Weather History Graph

Daily Weather History Graph

Search for Another Location

Airport:

Trip Planner

Search our weather history database for the weather conditions in past years. The results will help you decide how hot, cold, wet, or windy it might be!

Date:

Astronomy

Jan. 13, 2014 Rise Set
Actual Time 7:36 AM CST 5:55 PM CST
Civil Twilight 7:10 AM CST 6:21 PM CST
Nautical Twilight 6:40 AM CST 6:51 PM CST
Astronomical Twilight 6:11 AM CST 7:20 PM CST
Moon 4:10 PM CST (1/13) 5:27 AM CST (1/13)
Length of Visible Light 11h 11m
Length of Day
10h 19m
Waxing Gibbous, 95% of the Moon is Illuminated
Jan 13
Waxing Gibbous
Jan 15
Full
Jan 23
Last Quarter
Jan 30
New
Feb 6
First Quarter

Hourly Weather History & Observations

Time (CST) Temp. Windchill Dew Point Humidity Pressure Visibility Wind Dir Wind Speed Gust Speed Precip Events Conditions
12:15 AM 57.2 °F - 50.0 °F 77% 29.87 in 10.0 mi SW 10.4 mph - N/A   Clear
12:35 AM 57.2 °F - 50.0 °F 77% 29.87 in 10.0 mi SW 9.2 mph - N/A   Clear
12:55 AM 57.2 °F - 50.0 °F 77% 29.87 in 10.0 mi SW 6.9 mph - N/A   Clear
1:15 AM 55.4 °F - 50.0 °F 82% 29.88 in 10.0 mi SW 9.2 mph - N/A   Clear
1:35 AM 55.4 °F - 48.2 °F 77% 29.89 in 10.0 mi West 9.2 mph - N/A   Clear
1:55 AM 55.4 °F - 48.2 °F 77% 29.90 in 10.0 mi WSW 12.7 mph - N/A   Clear
2:15 AM 55.4 °F - 48.2 °F 77% 29.90 in 10.0 mi WSW 10.4 mph - N/A   Clear
2:35 AM 55.4 °F - 48.2 °F 77% 29.90 in 10.0 mi WSW 11.5 mph - N/A   Clear
2:55 AM 55.4 °F - 44.6 °F 67% 29.90 in 10.0 mi West 12.7 mph - N/A   Clear
3:15 AM 53.6 °F - 42.8 °F 67% 29.91 in 10.0 mi West 10.4 mph - N/A   Clear
3:35 AM 55.4 °F - 32.0 °F 41% 29.91 in 10.0 mi WNW 17.3 mph - N/A   Clear
3:55 AM 55.4 °F - 33.8 °F 44% 29.93 in 10.0 mi NW 18.4 mph - N/A   Clear
4:15 AM 51.8 °F - 33.8 °F 50% 29.94 in 10.0 mi NW 17.3 mph - N/A   Clear
4:35 AM 51.8 °F - 33.8 °F 50% 29.96 in 10.0 mi NNW 13.8 mph - N/A   Clear
4:55 AM 50.0 °F - 32.0 °F 50% 29.97 in 10.0 mi NW 15.0 mph - N/A   Clear
5:15 AM 48.2 °F - 30.2 °F 50% 29.98 in 10.0 mi NW 15.0 mph - N/A   Clear
5:35 AM 46.4 °F 41.1 °F 30.2 °F 53% 29.99 in 10.0 mi NW 11.5 mph - N/A   Clear
5:55 AM 44.6 °F 40.2 °F 30.2 °F 57% 30.00 in 10.0 mi NW 8.1 mph - N/A   Clear
6:15 AM 42.8 °F 38.6 °F 30.2 °F 61% 30.01 in 10.0 mi WNW 6.9 mph - N/A   Clear
6:35 AM 42.8 °F 37.5 °F 30.2 °F 61% 30.02 in 10.0 mi NW 9.2 mph - N/A   Clear
6:55 AM 44.6 °F 38.8 °F 28.4 °F 53% 30.03 in 10.0 mi NW 11.5 mph - N/A   Clear
7:15 AM 44.6 °F 39.2 °F 28.4 °F 53% 30.05 in 10.0 mi NW 10.4 mph - N/A   Clear
7:35 AM 44.6 °F 38.4 °F 28.4 °F 53% 30.05 in 10.0 mi NW 12.7 mph - N/A   Clear
7:55 AM 44.6 °F 38.8 °F 26.6 °F 49% 30.06 in 10.0 mi NW 11.5 mph - N/A   Clear
8:15 AM 46.4 °F 41.5 °F 26.6 °F 46% 30.08 in 10.0 mi NW 10.4 mph - N/A   Clear
8:35 AM 46.4 °F 40.7 °F 26.6 °F 46% 30.09 in 10.0 mi NW 12.7 mph - N/A   Clear
8:55 AM 48.2 °F - 26.6 °F 43% 30.10 in 10.0 mi NW 15.0 mph - N/A   Clear
9:15 AM 48.2 °F - 26.6 °F 43% 30.12 in 10.0 mi NW 17.3 mph - N/A   Clear
9:35 AM 50.0 °F - 26.6 °F 40% 30.13 in 10.0 mi NW 17.3 mph - N/A   Clear
9:55 AM 51.8 °F - 24.8 °F 35% 30.15 in 10.0 mi NW 17.3 mph - N/A   Clear
10:15 AM 51.8 °F - 26.6 °F 38% 30.16 in 10.0 mi NW 13.8 mph - N/A   Clear
10:35 AM 53.6 °F - 24.8 °F 33% 30.17 in 10.0 mi NW 13.8 mph - N/A   Clear
10:55 AM 53.6 °F - 24.8 °F 33% 30.16 in 10.0 mi NW 15.0 mph - N/A   Clear
11:15 AM 55.4 °F - 24.8 °F 31% 30.15 in 10.0 mi NW 18.4 mph - N/A   Clear
11:35 AM 57.2 °F - 24.8 °F 29% 30.15 in 10.0 mi NW 16.1 mph - N/A   Clear
11:55 AM 57.2 °F - 23.0 °F 27% 30.14 in 10.0 mi NW 15.0 mph - N/A   Clear
12:15 PM 60.8 °F - 19.4 °F 20% 30.13 in 10.0 mi NNW 15.0 mph - N/A   Clear
12:35 PM 59.0 °F - 23.0 °F 25% 30.13 in 10.0 mi NNW 12.7 mph - N/A   Clear
12:55 PM 60.8 °F - 21.2 °F 22% 30.12 in 10.0 mi NW 13.8 mph - N/A   Clear
1:15 PM 60.8 °F - 21.2 °F 22% 30.12 in 10.0 mi NNW 11.5 mph - N/A   Clear
1:35 PM 60.8 °F - 15.8 °F 17% 30.11 in 10.0 mi NW 16.1 mph - N/A   Clear
1:55 PM 60.8 °F - 15.8 °F 17% 30.11 in 10.0 mi WNW 13.8 mph - N/A   Clear
2:15 PM 60.8 °F - 15.8 °F 17% 30.11 in 4.0 mi NW 13.8 mph - N/A   Haze
2:35 PM 62.6 °F - 15.8 °F 16% 30.11 in 10.0 mi WNW 11.5 mph - N/A   Clear
2:55 PM 62.6 °F - 15.8 °F 16% 30.10 in 10.0 mi NW 15.0 mph - N/A   Clear
3:15 PM 62.6 °F - 15.8 °F 16% 30.11 in 10.0 mi NW 19.6 mph - N/A   Clear
3:35 PM 62.6 °F - 15.8 °F 16% 30.11 in 10.0 mi West 18.4 mph - N/A   Clear
3:55 PM 62.6 °F - 15.8 °F 16% 30.11 in 10.0 mi West 13.8 mph - N/A   Clear
4:15 PM 60.8 °F - 15.8 °F 17% 30.11 in 10.0 mi West 16.1 mph - N/A   Clear
4:35 PM 60.8 °F - 15.8 °F 17% 30.12 in 10.0 mi WNW 10.4 mph - N/A   Clear
4:55 PM 60.8 °F - 15.8 °F 17% 30.12 in 10.0 mi WNW 12.7 mph - N/A   Clear
5:15 PM 59.0 °F - 15.8 °F 19% 30.12 in 10.0 mi WNW 9.2 mph - N/A   Clear
5:35 PM 57.2 °F - 17.6 °F 21% 30.12 in 10.0 mi West 6.9 mph - N/A   Clear
5:55 PM 55.4 °F - 15.8 °F 21% 30.11 in 10.0 mi WNW 3.5 mph - N/A   Clear
6:15 PM 53.6 °F - 17.6 °F 24% 30.11 in 10.0 mi WNW 4.6 mph - N/A   Clear
6:35 PM 51.8 °F - 17.6 °F 26% 30.11 in 10.0 mi Calm Calm - N/A   Clear
6:55 PM 50.0 °F - 17.6 °F 28% 30.12 in 10.0 mi Calm Calm - N/A   Clear
7:15 PM 50.0 °F - 17.6 °F 28% 30.12 in 10.0 mi Calm Calm - N/A   Clear
7:35 PM 46.4 °F - 17.6 °F 32% 30.12 in 10.0 mi Calm Calm - N/A   Clear
7:55 PM 46.4 °F 44.3 °F 17.6 °F 32% 30.13 in 10.0 mi Variable 4.6 mph - N/A   Clear
8:15 PM 46.4 °F - 17.6 °F 32% 30.14 in 10.0 mi Calm Calm - N/A   Clear
8:35 PM 48.2 °F - 17.6 °F 30% 30.13 in 10.0 mi Calm Calm - N/A   Clear
8:55 PM 46.4 °F 44.3 °F 17.6 °F 32% 30.13 in 10.0 mi WSW 4.6 mph - N/A   Clear
9:15 PM 44.6 °F 43.1 °F 17.6 °F 34% 30.12 in 10.0 mi WSW 3.5 mph - N/A   Clear
9:35 PM 44.6 °F - 17.6 °F 34% 30.13 in 10.0 mi Calm Calm - N/A   Clear
9:55 PM 42.8 °F - 19.4 °F 39% 30.12 in 10.0 mi Calm Calm - N/A   Clear
10:15 PM 42.8 °F 41.1 °F 19.4 °F 39% 30.12 in 10.0 mi WSW 3.5 mph - N/A   Clear
10:35 PM 41.0 °F 39.0 °F 19.4 °F 42% 30.12 in 10.0 mi WSW 3.5 mph - N/A   Clear
10:55 PM 39.2 °F 35.9 °F 19.4 °F 45% 30.12 in 10.0 mi SW 4.6 mph - N/A   Clear
11:15 PM 37.4 °F - 19.4 °F 48% 30.12 in 10.0 mi Calm Calm - N/A   Clear
11:35 PM 37.4 °F - 19.4 °F 48% 30.11 in 10.0 mi Calm Calm - N/A   Clear
11:55 PM 37.4 °F - 19.4 °F 48% 30.10 in 10.0 mi Calm Calm - N/A   Clear